sensor_id;sensor_type;location;lat;lon;timestamp;temperature;humidity
73149;SHT30;61346;48.930;2.266;2022-12-18T00:37:20;-0.27;70.18
73149;SHT30;61346;48.930;2.266;2022-12-18T00:39:47;-0.30;70.23
73149;SHT30;61346;48.930;2.266;2022-12-18T00:42:18;-0.30;70.21
73149;SHT30;61346;48.930;2.266;2022-12-18T00:45:05;-0.34;70.19
73149;SHT30;61346;48.930;2.266;2022-12-18T00:47:31;-0.37;70.26
73149;SHT30;61346;48.930;2.266;2022-12-18T00:49:56;-0.36;70.37
73149;SHT30;61346;48.930;2.266;2022-12-18T00:52:22;-0.36;70.26
73149;SHT30;61346;48.930;2.266;2022-12-18T00:54:52;-0.36;70.33
73149;SHT30;61346;48.930;2.266;2022-12-18T00:57:18;-0.34;70.19
73149;SHT30;61346;48.930;2.266;2022-12-18T00:59:43;-0.37;70.22
73149;SHT30;61346;48.930;2.266;2022-12-18T01:02:12;-0.38;70.17
73149;SHT30;61346;48.930;2.266;2022-12-18T01:04:46;-0.42;70.07
73149;SHT30;61346;48.930;2.266;2022-12-18T01:07:14;-0.44;70.25
73149;SHT30;61346;48.930;2.266;2022-12-18T01:09:41;-0.48;70.42
73149;SHT30;61346;48.930;2.266;2022-12-18T01:12:06;-0.53;70.31
73149;SHT30;61346;48.930;2.266;2022-12-18T01:14:34;-0.53;70.39
73149;SHT30;61346;48.930;2.266;2022-12-18T01:17:04;-0.57;70.55
73149;SHT30;61346;48.930;2.266;2022-12-18T01:19:29;-0.60;70.55
73149;SHT30;61346;48.930;2.266;2022-12-18T01:21:55;-0.57;70.66
73149;SHT30;61346;48.930;2.266;2022-12-18T01:24:25;-0.57;70.60
73149;SHT30;61346;48.930;2.266;2022-12-18T01:26:51;-0.60;70.50
73149;SHT30;61346;48.930;2.266;2022-12-18T01:29:16;-0.61;70.52
73149;SHT30;61346;48.930;2.266;2022-12-18T01:31:42;-0.62;70.72
73149;SHT30;61346;48.930;2.266;2022-12-18T01:34:10;-0.64;70.73
73149;SHT30;61346;48.930;2.266;2022-12-18T01:36:44;-0.62;70.70
73149;SHT30;61346;48.930;2.266;2022-12-18T01:39:14;-0.62;70.63
73149;SHT30;61346;48.930;2.266;2022-12-18T01:41:42;-0.60;70.52
73149;SHT30;61346;48.930;2.266;2022-12-18T01:44:56;-0.61;70.53
73149;SHT30;61346;48.930;2.266;2022-12-18T01:50:46;-0.64;70.54
73149;SHT30;61346;48.930;2.266;2022-12-18T01:53:22;-0.61;70.60
73149;SHT30;61346;48.930;2.266;2022-12-18T01:55:51;-0.64;70.52
73149;SHT30;61346;48.930;2.266;2022-12-18T01:58:45;-0.69;70.60
73149;SHT30;61346;48.930;2.266;2022-12-18T02:01:14;-0.69;70.56
73149;SHT30;61346;48.930;2.266;2022-12-18T02:03:43;-0.74;70.53
73149;SHT30;61346;48.930;2.266;2022-12-18T02:06:13;-0.75;70.70
73149;SHT30;61346;48.930;2.266;2022-12-18T02:09:31;-0.75;70.71
73149;SHT30;61346;48.930;2.266;2022-12-18T02:12:10;-0.75;70.68
73149;SHT30;61346;48.930;2.266;2022-12-18T02:17:39;-0.74;70.74
73149;SHT30;61346;48.930;2.266;2022-12-18T02:20:16;-0.74;70.74
73149;SHT30;61346;48.930;2.266;2022-12-18T02:26:00;-0.81;70.64
73149;SHT30;61346;48.930;2.266;2022-12-18T02:28:31;-0.82;70.78
73149;SHT30;61346;48.930;2.266;2022-12-18T02:31:00;-0.84;70.82
73149;SHT30;61346;48.930;2.266;2022-12-18T02:33:36;-0.82;70.94
73149;SHT30;61346;48.930;2.266;2022-12-18T02:36:17;-0.85;71.01
73149;SHT30;61346;48.930;2.266;2022-12-18T02:38:50;-0.88;71.06
73149;SHT30;61346;48.930;2.266;2022-12-18T02:41:18;-0.86;71.13
73149;SHT30;61346;48.930;2.266;2022-12-18T02:44:01;-0.86;71.14
73149;SHT30;61346;48.930;2.266;2022-12-18T02:49:26;-0.85;71.19
73149;SHT30;61346;48.930;2.266;2022-12-18T03:00:42;-0.88;71.37
73149;SHT30;61346;48.930;2.266;2022-12-18T03:06:07;-0.82;71.39
73149;SHT30;61346;48.930;2.266;2022-12-18T03:08:43;-0.84;71.39
73149;SHT30;61346;48.930;2.266;2022-12-18T03:11:41;-0.82;71.42
73149;SHT30;61346;48.930;2.266;2022-12-18T03:14:31;-0.82;71.34
73149;SHT30;61346;48.930;2.266;2022-12-18T03:17:22;-0.84;71.35
73149;SHT30;61346;48.930;2.266;2022-12-18T03:19:58;-0.85;71.34
73149;SHT30;61346;48.930;2.266;2022-12-18T03:22:26;-0.84;71.40
73149;SHT30;61346;48.930;2.266;2022-12-18T03:24:56;-0.85;71.59
73149;SHT30;61346;48.930;2.266;2022-12-18T03:27:51;-0.81;71.58
73149;SHT30;61346;48.930;2.266;2022-12-18T03:30:23;-0.78;71.61
73149;SHT30;61346;48.930;2.266;2022-12-18T03:33:25;-0.75;71.54
73149;SHT30;61346;48.930;2.266;2022-12-18T03:36:18;-0.72;71.52
73149;SHT30;61346;48.930;2.266;2022-12-18T03:38:57;-0.69;71.47
73149;SHT30;61346;48.930;2.266;2022-12-18T03:41:54;-0.64;71.24
73149;SHT30;61346;48.930;2.266;2022-12-18T03:44:56;-0.60;71.32
73149;SHT30;61346;48.930;2.266;2022-12-18T03:50:17;-0.53;71.11
73149;SHT30;61346;48.930;2.266;2022-12-18T03:52:51;-0.50;71.03
73149;SHT30;61346;48.930;2.266;2022-12-18T03:55:27;-0.50;71.03
73149;SHT30;61346;48.930;2.266;2022-12-18T03:58:02;-0.50;70.95
73149;SHT30;61346;48.930;2.266;2022-12-18T04:00:34;-0.48;70.86
73149;SHT30;61346;48.930;2.266;2022-12-18T04:03:01;-0.48;70.79
73149;SHT30;61346;48.930;2.266;2022-12-18T04:05:30;-0.53;70.82
73149;SHT30;61346;48.930;2.266;2022-12-18T04:08:03;-0.54;70.82
73149;SHT30;61346;48.930;2.266;2022-12-18T04:10:31;-0.53;70.89
73149;SHT30;61346;48.930;2.266;2022-12-18T04:12:57;-0.50;70.92
73149;SHT30;61346;48.930;2.266;2022-12-18T04:15:46;-0.51;70.78
73149;SHT30;61346;48.930;2.266;2022-12-18T04:18:18;-0.53;70.82
73149;SHT30;61346;48.930;2.266;2022-12-18T04:20:43;-0.50;70.87
73149;SHT30;61346;48.930;2.266;2022-12-18T04:23:09;-0.53;70.86
73149;SHT30;61346;48.930;2.266;2022-12-18T04:25:37;-0.50;70.90
73149;SHT30;61346;48.930;2.266;2022-12-18T04:28:08;-0.54;70.77
73149;SHT30;61346;48.930;2.266;2022-12-18T04:30:33;-0.54;70.86
73149;SHT30;61346;48.930;2.266;2022-12-18T04:32:59;-0.54;70.80
73149;SHT30;61346;48.930;2.266;2022-12-18T04:35:25;-0.54;71.03
73149;SHT30;61346;48.930;2.266;2022-12-18T04:37:54;-0.54;70.89
73149;SHT30;61346;48.930;2.266;2022-12-18T04:40:43;-0.54;70.81
73149;SHT30;61346;48.930;2.266;2022-12-18T04:43:40;-0.54;70.89
73149;SHT30;61346;48.930;2.266;2022-12-18T04:46:14;-0.53;70.99
73149;SHT30;61346;48.930;2.266;2022-12-18T04:48:45;-0.53;70.87
73149;SHT30;61346;48.930;2.266;2022-12-18T04:51:15;-0.58;70.85
73149;SHT30;61346;48.930;2.266;2022-12-18T04:53:46;-0.57;71.00
73149;SHT30;61346;48.930;2.266;2022-12-18T04:56:14;-0.55;71.01
73149;SHT30;61346;48.930;2.266;2022-12-18T04:58:42;-0.55;70.96
73149;SHT30;61346;48.930;2.266;2022-12-18T05:01:08;-0.57;70.86
73149;SHT30;61346;48.930;2.266;2022-12-18T05:03:36;-0.55;70.91
73149;SHT30;61346;48.930;2.266;2022-12-18T05:06:03;-0.55;70.89
73149;SHT30;61346;48.930;2.266;2022-12-18T05:08:29;-0.55;70.92
73149;SHT30;61346;48.930;2.266;2022-12-18T05:11:04;-0.58;70.82
73149;SHT30;61346;48.930;2.266;2022-12-18T05:13:48;-0.60;70.83
73149;SHT30;61346;48.930;2.266;2022-12-18T05:16:15;-0.62;71.00
73149;SHT30;61346;48.930;2.266;2022-12-18T05:18:46;-0.65;70.99
73149;SHT30;61346;48.930;2.266;2022-12-18T05:21:12;-0.62;70.90
73149;SHT30;61346;48.930;2.266;2022-12-18T05:23:37;-0.65;71.05
73149;SHT30;61346;48.930;2.266;2022-12-18T05:26:23;-0.64;71.04
73149;SHT30;61346;48.930;2.266;2022-12-18T05:28:51;-0.66;71.08
73149;SHT30;61346;48.930;2.266;2022-12-18T05:31:16;-0.64;71.01
73149;SHT30;61346;48.930;2.266;2022-12-18T05:33:42;-0.64;71.17
73149;SHT30;61346;48.930;2.266;2022-12-18T05:36:12;-0.65;71.08
73149;SHT30;61346;48.930;2.266;2022-12-18T05:38:41;-0.65;71.18
73149;SHT30;61346;48.930;2.266;2022-12-18T05:41:10;-0.64;71.11
73149;SHT30;61346;48.930;2.266;2022-12-18T05:43:39;-0.62;71.19
73149;SHT30;61346;48.930;2.266;2022-12-18T05:46:08;-0.65;71.06
73149;SHT30;61346;48.930;2.266;2022-12-18T05:48:44;-0.65;71.22
73149;SHT30;61346;48.930;2.266;2022-12-18T05:51:14;-0.65;71.28
73149;SHT30;61346;48.930;2.266;2022-12-18T05:54:00;-0.64;71.38
73149;SHT30;61346;48.930;2.266;2022-12-18T05:56:25;-0.61;71.35
73149;SHT30;61346;48.930;2.266;2022-12-18T05:58:54;-0.61;71.33
73149;SHT30;61346;48.930;2.266;2022-12-18T06:01:23;-0.57;71.17
73149;SHT30;61346;48.930;2.266;2022-12-18T06:03:48;-0.57;71.10
73149;SHT30;61346;48.930;2.266;2022-12-18T06:06:27;-0.54;71.13
73149;SHT30;61346;48.930;2.266;2022-12-18T06:09:11;-0.54;71.09
73149;SHT30;61346;48.930;2.266;2022-12-18T06:11:39;-0.55;71.13
73149;SHT30;61346;48.930;2.266;2022-12-18T06:14:06;-0.57;71.25
73149;SHT30;61346;48.930;2.266;2022-12-18T06:16:51;-0.54;70.89
73149;SHT30;61346;48.930;2.266;2022-12-18T06:19:20;-0.55;70.97
73149;SHT30;61346;48.930;2.266;2022-12-18T06:21:48;-0.53;71.18
73149;SHT30;61346;48.930;2.266;2022-12-18T06:24:23;-0.50;71.05
73149;SHT30;61346;48.930;2.266;2022-12-18T06:26:51;-0.51;71.05
73149;SHT30;61346;48.930;2.266;2022-12-18T06:29:18;-0.47;71.09
73149;SHT30;61346;48.930;2.266;2022-12-18T06:31:43;-0.48;71.12
73149;SHT30;61346;48.930;2.266;2022-12-18T06:34:11;-0.48;71.03
73149;SHT30;61346;48.930;2.266;2022-12-18T06:36:37;-0.47;70.99
73149;SHT30;61346;48.930;2.266;2022-12-18T06:39:02;-0.50;70.88
73149;SHT30;61346;48.930;2.266;2022-12-18T06:41:31;-0.47;70.96
73149;SHT30;61346;48.930;2.266;2022-12-18T06:43:59;-0.45;70.92
73149;SHT30;61346;48.930;2.266;2022-12-18T06:46:31;-0.41;70.72
73149;SHT30;61346;48.930;2.266;2022-12-18T06:48:57;-0.40;70.52
73149;SHT30;61346;48.930;2.266;2022-12-18T06:51:25;-0.37;70.41
73149;SHT30;61346;48.930;2.266;2022-12-18T06:53:52;-0.38;70.33
73149;SHT30;61346;48.930;2.266;2022-12-18T06:56:17;-0.33;70.37
73149;SHT30;61346;48.930;2.266;2022-12-18T06:58:52;-0.33;70.29
73149;SHT30;61346;48.930;2.266;2022-12-18T07:03:56;-0.34;70.13
73149;SHT30;61346;48.930;2.266;2022-12-18T07:06:24;-0.34;70.12
73149;SHT30;61346;48.930;2.266;2022-12-18T07:09:00;-0.30;69.99
73149;SHT30;61346;48.930;2.266;2022-12-18T07:11:28;-0.27;69.98
73149;SHT30;61346;48.930;2.266;2022-12-18T07:14:42;-0.28;69.94
73149;SHT30;61346;48.930;2.266;2022-12-18T08:26:07;-0.37;69.20
73149;SHT30;61346;48.930;2.266;2022-12-18T08:32:35;-0.26;69.05
73149;SHT30;61346;48.930;2.266;2022-12-18T10:40:23;2.17;64.57
73149;SHT30;61346;48.930;2.266;2022-12-18T10:49:01;2.39;64.37
73149;SHT30;61346;48.930;2.266;2022-12-18T10:55:03;2.56;64.27
73149;SHT30;61346;48.930;2.266;2022-12-18T11:05:45;2.76;63.65
73149;SHT30;61346;48.930;2.266;2022-12-18T14:19:14;4.63;62.07
73149;SHT30;61346;48.930;2.266;2022-12-18T14:21:53;4.62;62.30
73149;SHT30;61346;48.930;2.266;2022-12-18T14:31:44;4.75;62.57
73149;SHT30;61346;48.930;2.266;2022-12-18T22:40:11;7.08;75.93
